LFPM 262100Z AUTO 19014KT 9999 ////// 08/06 Q1015

Les locaux du Club
   
  L'Entrée du club Batiment 50  
   
  L'accueil et la zone opérations  
   
  La zone opérations  
   
  La zone Briefing  
   
  Le Club House  
   
  La parking avions et le hangard